sensor_id;sensor_type;location;lat;lon;timestamp;P1;durP1;ratioP1;P2;durP2;ratioP2
12721;SDS011;6425;50.316;8.114;2024-01-30T00:00:00;29;;;15.7;;
12721;SDS011;6425;50.316;8.114;2024-01-30T00:03:00;29.4;;;15.5;;
12721;SDS011;6425;50.316;8.114;2024-01-30T00:06:00;29.8;;;15.4;;
12721;SDS011;6425;50.316;8.114;2024-01-30T00:09:00;24.2;;;14.5;;
12721;SDS011;6425;50.316;8.114;2024-01-30T00:12:00;24.2;;;14.5;;
12721;SDS011;6425;50.316;8.114;2024-01-30T00:15:01;27.7;;;15.7;;
12721;SDS011;6425;50.316;8.114;2024-01-30T00:18:00;31.6;;;17.2;;
12721;SDS011;6425;50.316;8.114;2024-01-30T00:21:00;31.6;;;17.2;;
12721;SDS011;6425;50.316;8.114;2024-01-30T00:24:00;33.1;;;16.7;;
12721;SDS011;6425;50.316;8.114;2024-01-30T00:27:02;33.1;;;16.7;;
12721;SDS011;6425;50.316;8.114;2024-01-30T00:30:00;36;;;18.6;;
12721;SDS011;6425;50.316;8.114;2024-01-30T00:33:00;33.9;;;18.5;;
12721;SDS011;6425;50.316;8.114;2024-01-30T00:36:00;33.9;;;18.5;;
12721;SDS011;6425;50.316;8.114;2024-01-30T00:39:00;33.9;;;18.5;;
12721;SDS011;6425;50.316;8.114;2024-01-30T00:42:01;33.9;;;18.5;;
12721;SDS011;6425;50.316;8.114;2024-01-30T00:45:00;31.1;;;16.9;;
12721;SDS011;6425;50.316;8.114;2024-01-30T00:48:00;35.4;;;17.7;;
12721;SDS011;6425;50.316;8.114;2024-01-30T00:51:00;35.4;;;17.7;;
12721;SDS011;6425;50.316;8.114;2024-01-30T00:54:01;32.3;;;17.7;;
12721;SDS011;6425;50.316;8.114;2024-01-30T00:57:00;32.3;;;17.7;;
12721;SDS011;6425;50.316;8.114;2024-01-30T01:00:00;39.6;;;19.9;;
12721;SDS011;6425;50.316;8.114;2024-01-30T01:03:00;36.3;;;18.2;;
12721;SDS011;6425;50.316;8.114;2024-01-30T01:06:02;36.3;;;18.2;;
12721;SDS011;6425;50.316;8.114;2024-01-30T01:09:00;40.8;;;21.1;;
12721;SDS011;6425;50.316;8.114;2024-01-30T01:12:00;40.8;;;21.1;;
12721;SDS011;6425;50.316;8.114;2024-01-30T01:15:00;37.1;;;19.4;;
12721;SDS011;6425;50.316;8.114;2024-01-30T01:18:00;37.2;;;20.5;;
12721;SDS011;6425;50.316;8.114;2024-01-30T01:21:00;37.2;;;20.5;;
12721;SDS011;6425;50.316;8.114;2024-01-30T01:24:00;38.6;;;19.8;;
12721;SDS011;6425;50.316;8.114;2024-01-30T01:27:00;38.6;;;19.8;;
12721;SDS011;6425;50.316;8.114;2024-01-30T01:30:00;40.1;;;20.7;;
12721;SDS011;6425;50.316;8.114;2024-01-30T01:33:00;41.8;;;21.6;;
12721;SDS011;6425;50.316;8.114;2024-01-30T01:36:00;41.8;;;21.6;;
12721;SDS011;6425;50.316;8.114;2024-01-30T01:39:00;41.9;;;22;;
12721;SDS011;6425;50.316;8.114;2024-01-30T01:42:01;41.9;;;22;;
12721;SDS011;6425;50.316;8.114;2024-01-30T01:45:00;45.4;;;22.8;;
12721;SDS011;6425;50.316;8.114;2024-01-30T01:48:00;47;;;23.7;;
12721;SDS011;6425;50.316;8.114;2024-01-30T01:51:00;47;;;23.7;;
12721;SDS011;6425;50.316;8.114;2024-01-30T01:54:01;50.4;;;23.1;;
12721;SDS011;6425;50.316;8.114;2024-01-30T01:57:00;50.4;;;23.1;;
12721;SDS011;6425;50.316;8.114;2024-01-30T02:00:00;48.2;;;23.1;;
12721;SDS011;6425;50.316;8.114;2024-01-30T02:03:00;43.7;;;22.8;;
12721;SDS011;6425;50.316;8.114;2024-01-30T02:06:00;43.7;;;22.8;;
12721;SDS011;6425;50.316;8.114;2024-01-30T02:09:00;49.5;;;23.9;;
12721;SDS011;6425;50.316;8.114;2024-01-30T02:12:00;49.5;;;23.9;;
12721;SDS011;6425;50.316;8.114;2024-01-30T02:15:00;45.8;;;24.5;;
12721;SDS011;6425;50.316;8.114;2024-01-30T02:18:00;46.6;;;23.5;;
12721;SDS011;6425;50.316;8.114;2024-01-30T02:24:00;45.9;;;24.1;;
12721;SDS011;6425;50.316;8.114;2024-01-30T02:27:00;45.9;;;24.1;;
12721;SDS011;6425;50.316;8.114;2024-01-30T02:30:00;40.7;;;22.2;;
12721;SDS011;6425;50.316;8.114;2024-01-30T02:33:00;41.4;;;22.8;;
12721;SDS011;6425;50.316;8.114;2024-01-30T02:36:00;41.4;;;22.8;;
12721;SDS011;6425;50.316;8.114;2024-01-30T02:39:00;46.3;;;23.7;;
12721;SDS011;6425;50.316;8.114;2024-01-30T02:42:00;43.8;;;23.2;;
12721;SDS011;6425;50.316;8.114;2024-01-30T02:45:00;43.8;;;23.2;;
12721;SDS011;6425;50.316;8.114;2024-01-30T02:48:00;44.3;;;24;;
12721;SDS011;6425;50.316;8.114;2024-01-30T02:51:00;44.3;;;24;;
12721;SDS011;6425;50.316;8.114;2024-01-30T02:54:00;46.4;;;23.3;;
12721;SDS011;6425;50.316;8.114;2024-01-30T02:57:00;44.9;;;23.6;;
12721;SDS011;6425;50.316;8.114;2024-01-30T03:00:00;44.9;;;23.6;;
12721;SDS011;6425;50.316;8.114;2024-01-30T03:03:00;40.4;;;22.3;;
12721;SDS011;6425;50.316;8.114;2024-01-30T03:06:00;40.4;;;22.3;;
12721;SDS011;6425;50.316;8.114;2024-01-30T03:09:00;36.8;;;20.5;;
12721;SDS011;6425;50.316;8.114;2024-01-30T03:12:00;48.8;;;23.3;;
12721;SDS011;6425;50.316;8.114;2024-01-30T03:15:00;48.8;;;23.3;;
12721;SDS011;6425;50.316;8.114;2024-01-30T03:18:01;41.5;;;21.5;;
12721;SDS011;6425;50.316;8.114;2024-01-30T03:21:00;41.5;;;21.5;;
12721;SDS011;6425;50.316;8.114;2024-01-30T03:24:00;44.4;;;22.7;;
12721;SDS011;6425;50.316;8.114;2024-01-30T03:27:00;44.2;;;22.8;;
12721;SDS011;6425;50.316;8.114;2024-01-30T03:30:00;44.2;;;22.8;;
12721;SDS011;6425;50.316;8.114;2024-01-30T03:33:00;43.5;;;22;;
12721;SDS011;6425;50.316;8.114;2024-01-30T03:36:02;43.5;;;22;;
12721;SDS011;6425;50.316;8.114;2024-01-30T03:39:00;46.3;;;23.1;;
12721;SDS011;6425;50.316;8.114;2024-01-30T03:42:02;43.9;;;24.1;;
12721;SDS011;6425;50.316;8.114;2024-01-30T03:45:00;43.9;;;24.1;;
12721;SDS011;6425;50.316;8.114;2024-01-30T03:48:00;44.5;;;23.5;;
12721;SDS011;6425;50.316;8.114;2024-01-30T03:51:00;44.5;;;23.5;;
12721;SDS011;6425;50.316;8.114;2024-01-30T03:54:00;44.5;;;22.6;;
12721;SDS011;6425;50.316;8.114;2024-01-30T03:57:00;40.1;;;22;;
12721;SDS011;6425;50.316;8.114;2024-01-30T04:00:00;40.1;;;22;;
12721;SDS011;6425;50.316;8.114;2024-01-30T04:03:00;45.4;;;23.2;;
12721;SDS011;6425;50.316;8.114;2024-01-30T04:06:02;45.4;;;23.2;;
12721;SDS011;6425;50.316;8.114;2024-01-30T04:09:00;41.9;;;22.4;;
12721;SDS011;6425;50.316;8.114;2024-01-30T04:12:00;42.7;;;21.9;;
12721;SDS011;6425;50.316;8.114;2024-01-30T04:15:00;42.7;;;21.9;;
12721;SDS011;6425;50.316;8.114;2024-01-30T04:18:01;43.2;;;21.9;;
12721;SDS011;6425;50.316;8.114;2024-01-30T04:21:00;43.2;;;21.9;;
12721;SDS011;6425;50.316;8.114;2024-01-30T04:24:00;41.1;;;22.1;;
12721;SDS011;6425;50.316;8.114;2024-01-30T04:27:00;46;;;22.3;;
12721;SDS011;6425;50.316;8.114;2024-01-30T04:30:02;46;;;22.3;;
12721;SDS011;6425;50.316;8.114;2024-01-30T04:33:00;45.7;;;22.7;;
12721;SDS011;6425;50.316;8.114;2024-01-30T04:36:00;45.7;;;22.7;;
12721;SDS011;6425;50.316;8.114;2024-01-30T04:39:00;43.1;;;21.2;;
12721;SDS011;6425;50.316;8.114;2024-01-30T04:42:01;42.3;;;21.8;;
12721;SDS011;6425;50.316;8.114;2024-01-30T04:45:00;42.3;;;21.8;;
12721;SDS011;6425;50.316;8.114;2024-01-30T04:48:00;43.7;;;22.2;;
12721;SDS011;6425;50.316;8.114;2024-01-30T04:51:00;43.7;;;22.2;;
12721;SDS011;6425;50.316;8.114;2024-01-30T04:54:00;42.3;;;21.2;;
12721;SDS011;6425;50.316;8.114;2024-01-30T04:57:00;75.4;;;23.1;;
12721;SDS011;6425;50.316;8.114;2024-01-30T05:00:00;75.4;;;23.1;;
12721;SDS011;6425;50.316;8.114;2024-01-30T05:03:00;69.7;;;24.9;;
12721;SDS011;6425;50.316;8.114;2024-01-30T05:06:00;62;;;25;;
12721;SDS011;6425;50.316;8.114;2024-01-30T05:09:00;54.3;;;25.1;;
12721;SDS011;6425;50.316;8.114;2024-01-30T05:12:00;51.8;;;23.5;;
12721;SDS011;6425;50.316;8.114;2024-01-30T05:15:00;51.8;;;23.5;;
12721;SDS011;6425;50.316;8.114;2024-01-30T05:18:01;54.6;;;23.6;;
12721;SDS011;6425;50.316;8.114;2024-01-30T05:21:00;47.4;;;22.5;;
12721;SDS011;6425;50.316;8.114;2024-01-30T05:24:00;47.4;;;22.5;;
12721;SDS011;6425;50.316;8.114;2024-01-30T05:27:00;42.7;;;21.3;;
12721;SDS011;6425;50.316;8.114;2024-01-30T05:30:00;42.7;;;21.3;;
12721;SDS011;6425;50.316;8.114;2024-01-30T05:33:00;45.4;;;22.4;;
12721;SDS011;6425;50.316;8.114;2024-01-30T05:36:00;49.9;;;21.7;;
12721;SDS011;6425;50.316;8.114;2024-01-30T05:39:00;49.9;;;21.7;;
12721;SDS011;6425;50.316;8.114;2024-01-30T05:42:00;45.9;;;22.3;;
12721;SDS011;6425;50.316;8.114;2024-01-30T05:45:00;45.9;;;22.3;;
12721;SDS011;6425;50.316;8.114;2024-01-30T05:48:00;63.9;;;22.9;;
12721;SDS011;6425;50.316;8.114;2024-01-30T05:51:00;57.2;;;23.3;;
12721;SDS011;6425;50.316;8.114;2024-01-30T05:54:00;57.2;;;23.3;;
12721;SDS011;6425;50.316;8.114;2024-01-30T05:57:00;51.9;;;22.8;;
12721;SDS011;6425;50.316;8.114;2024-01-30T06:00:00;51.9;;;22.8;;
12721;SDS011;6425;50.316;8.114;2024-01-30T06:03:00;51.9;;;22;;
12721;SDS011;6425;50.316;8.114;2024-01-30T06:06:00;42.6;;;21;;
12721;SDS011;6425;50.316;8.114;2024-01-30T06:09:00;42.6;;;21;;
12721;SDS011;6425;50.316;8.114;2024-01-30T06:12:00;62.3;;;23.7;;
12721;SDS011;6425;50.316;8.114;2024-01-30T06:15:00;62.3;;;23.7;;
12721;SDS011;6425;50.316;8.114;2024-01-30T06:18:00;440.4;;;36.8;;
12721;SDS011;6425;50.316;8.114;2024-01-30T06:21:00;61.4;;;22.9;;
12721;SDS011;6425;50.316;8.114;2024-01-30T06:24:00;61.4;;;22.9;;
12721;SDS011;6425;50.316;8.114;2024-01-30T06:27:00;65.1;;;23.3;;
12721;SDS011;6425;50.316;8.114;2024-01-30T06:30:00;65.1;;;23.3;;
12721;SDS011;6425;50.316;8.114;2024-01-30T06:33:00;108;;;26.6;;
12721;SDS011;6425;50.316;8.114;2024-01-30T06:36:00;92.3;;;24;;
12721;SDS011;6425;50.316;8.114;2024-01-30T06:39:00;92.3;;;24;;
12721;SDS011;6425;50.316;8.114;2024-01-30T06:42:00;83.6;;;24.3;;
12721;SDS011;6425;50.316;8.114;2024-01-30T06:45:00;83.6;;;24.3;;
12721;SDS011;6425;50.316;8.114;2024-01-30T06:48:00;42.2;;;19.9;;
12721;SDS011;6425;50.316;8.114;2024-01-30T06:51:00;42.2;;;21.2;;
12721;SDS011;6425;50.316;8.114;2024-01-30T06:54:00;42.2;;;21.2;;
12721;SDS011;6425;50.316;8.114;2024-01-30T06:57:00;40.5;;;21;;
12721;SDS011;6425;50.316;8.114;2024-01-30T07:00:00;40.5;;;21;;
12721;SDS011;6425;50.316;8.114;2024-01-30T07:03:00;42.1;;;21.4;;
12721;SDS011;6425;50.316;8.114;2024-01-30T07:06:01;39.9;;;20.9;;
12721;SDS011;6425;50.316;8.114;2024-01-30T07:09:00;39.9;;;20.9;;
12721;SDS011;6425;50.316;8.114;2024-01-30T07:12:00;38;;;20;;
12721;SDS011;6425;50.316;8.114;2024-01-30T07:15:00;45.2;;;22.8;;
12721;SDS011;6425;50.316;8.114;2024-01-30T07:18:00;45.2;;;22.8;;
12721;SDS011;6425;50.316;8.114;2024-01-30T07:21:00;40.5;;;20.6;;
12721;SDS011;6425;50.316;8.114;2024-01-30T07:24:00;40.5;;;20.6;;
12721;SDS011;6425;50.316;8.114;2024-01-30T07:27:00;48.1;;;23;;
12721;SDS011;6425;50.316;8.114;2024-01-30T07:30:00;45.4;;;21.7;;
12721;SDS011;6425;50.316;8.114;2024-01-30T07:33:00;42.7;;;20.4;;
12721;SDS011;6425;50.316;8.114;2024-01-30T07:36:00;37;;;20.1;;
12721;SDS011;6425;50.316;8.114;2024-01-30T07:39:00;37;;;20.1;;
12721;SDS011;6425;50.316;8.114;2024-01-30T07:42:00;41;;;20.1;;
12721;SDS011;6425;50.316;8.114;2024-01-30T07:45:00;38.2;;;19.9;;
12721;SDS011;6425;50.316;8.114;2024-01-30T07:48:00;38.2;;;19.9;;
12721;SDS011;6425;50.316;8.114;2024-01-30T07:51:00;37.6;;;21.5;;
12721;SDS011;6425;50.316;8.114;2024-01-30T07:54:00;37.6;;;21.5;;
12721;SDS011;6425;50.316;8.114;2024-01-30T07:57:00;36.5;;;20;;
12721;SDS011;6425;50.316;8.114;2024-01-30T08:00:00;132.5;;;28.5;;
12721;SDS011;6425;50.316;8.114;2024-01-30T08:03:00;132.5;;;28.5;;
12721;SDS011;6425;50.316;8.114;2024-01-30T08:06:00;65.5;;;25.9;;
12721;SDS011;6425;50.316;8.114;2024-01-30T08:09:00;65.5;;;25.9;;
12721;SDS011;6425;50.316;8.114;2024-01-30T08:12:00;57.5;;;23.2;;
12721;SDS011;6425;50.316;8.114;2024-01-30T08:15:00;50.7;;;24.1;;
12721;SDS011;6425;50.316;8.114;2024-01-30T08:18:02;50.7;;;24.1;;
12721;SDS011;6425;50.316;8.114;2024-01-30T08:21:00;45.5;;;23.5;;
12721;SDS011;6425;50.316;8.114;2024-01-30T08:24:00;45.5;;;23.5;;
12721;SDS011;6425;50.316;8.114;2024-01-30T08:27:00;45.8;;;24.5;;
12721;SDS011;6425;50.316;8.114;2024-01-30T08:30:00;48.1;;;23.7;;
12721;SDS011;6425;50.316;8.114;2024-01-30T08:33:00;48.1;;;23.7;;
12721;SDS011;6425;50.316;8.114;2024-01-30T08:36:00;51.3;;;25.3;;
12721;SDS011;6425;50.316;8.114;2024-01-30T08:39:00;51.3;;;25.3;;
12721;SDS011;6425;50.316;8.114;2024-01-30T08:42:00;119.3;;;46.3;;
12721;SDS011;6425;50.316;8.114;2024-01-30T08:45:01;82.2;;;39.1;;
12721;SDS011;6425;50.316;8.114;2024-01-30T08:48:00;82.2;;;39.1;;
12721;SDS011;6425;50.316;8.114;2024-01-30T08:51:00;77;;;43.3;;
12721;SDS011;6425;50.316;8.114;2024-01-30T08:54:00;77;;;43.3;;
12721;SDS011;6425;50.316;8.114;2024-01-30T08:57:00;53.6;;;31.1;;
12721;SDS011;6425;50.316;8.114;2024-01-30T09:00:00;44.1;;;24.3;;
12721;SDS011;6425;50.316;8.114;2024-01-30T09:03:00;44.1;;;24.3;;
12721;SDS011;6425;50.316;8.114;2024-01-30T09:06:00;42.9;;;24.9;;
12721;SDS011;6425;50.316;8.114;2024-01-30T09:09:00;42.9;;;24.9;;
12721;SDS011;6425;50.316;8.114;2024-01-30T09:12:00;48.9;;;27.1;;
12721;SDS011;6425;50.316;8.114;2024-01-30T09:15:00;49;;;28.7;;
12721;SDS011;6425;50.316;8.114;2024-01-30T09:18:00;49;;;28.7;;
12721;SDS011;6425;50.316;8.114;2024-01-30T09:21:00;48.7;;;28.5;;
12721;SDS011;6425;50.316;8.114;2024-01-30T09:24:01;48.7;;;28.5;;
12721;SDS011;6425;50.316;8.114;2024-01-30T09:27:00;52.3;;;31;;
12721;SDS011;6425;50.316;8.114;2024-01-30T09:30:00;38.6;;;22.9;;
12721;SDS011;6425;50.316;8.114;2024-01-30T09:33:01;38.6;;;22.9;;
12721;SDS011;6425;50.316;8.114;2024-01-30T09:36:00;41.6;;;24.3;;
12721;SDS011;6425;50.316;8.114;2024-01-30T09:39:00;40.8;;;22;;
12721;SDS011;6425;50.316;8.114;2024-01-30T09:42:01;40.8;;;22;;
12721;SDS011;6425;50.316;8.114;2024-01-30T09:45:00;39.4;;;23.5;;
12721;SDS011;6425;50.316;8.114;2024-01-30T09:48:00;39.4;;;23.5;;
12721;SDS011;6425;50.316;8.114;2024-01-30T09:51:00;39.4;;;22.9;;
12721;SDS011;6425;50.316;8.114;2024-01-30T09:54:00;39.9;;;24.2;;
12721;SDS011;6425;50.316;8.114;2024-01-30T09:57:00;39.9;;;24.2;;
12721;SDS011;6425;50.316;8.114;2024-01-30T10:00:00;51.1;;;28.6;;
12721;SDS011;6425;50.316;8.114;2024-01-30T10:03:00;51.1;;;28.6;;
12721;SDS011;6425;50.316;8.114;2024-01-30T10:06:00;51.6;;;27.7;;
12721;SDS011;6425;50.316;8.114;2024-01-30T10:09:00;45;;;26.8;;
12721;SDS011;6425;50.316;8.114;2024-01-30T10:12:00;45;;;26.8;;
12721;SDS011;6425;50.316;8.114;2024-01-30T10:15:00;48.5;;;27;;
12721;SDS011;6425;50.316;8.114;2024-01-30T10:18:00;48.5;;;27;;
12721;SDS011;6425;50.316;8.114;2024-01-30T10:21:01;46.3;;;26.9;;
12721;SDS011;6425;50.316;8.114;2024-01-30T10:24:00;46.3;;;29.2;;
12721;SDS011;6425;50.316;8.114;2024-01-30T10:27:00;46.3;;;29.2;;
12721;SDS011;6425;50.316;8.114;2024-01-30T10:30:00;51.5;;;28.7;;
12721;SDS011;6425;50.316;8.114;2024-01-30T10:33:00;51.5;;;28.7;;
12721;SDS011;6425;50.316;8.114;2024-01-30T10:36:00;41.6;;;25.1;;
12721;SDS011;6425;50.316;8.114;2024-01-30T10:39:00;41.8;;;24.6;;
12721;SDS011;6425;50.316;8.114;2024-01-30T10:42:01;41.8;;;24.6;;
12721;SDS011;6425;50.316;8.114;2024-01-30T10:45:02;45.9;;;25.3;;
12721;SDS011;6425;50.316;8.114;2024-01-30T10:48:00;45.9;;;25.3;;
12721;SDS011;6425;50.316;8.114;2024-01-30T10:51:00;40.9;;;26.4;;
12721;SDS011;6425;50.316;8.114;2024-01-30T10:54:00;48.7;;;30.8;;
12721;SDS011;6425;50.316;8.114;2024-01-30T10:57:00;48.7;;;30.8;;
12721;SDS011;6425;50.316;8.114;2024-01-30T11:00:00;37.5;;;24.8;;
12721;SDS011;6425;50.316;8.114;2024-01-30T11:03:00;37.5;;;24.8;;
12721;SDS011;6425;50.316;8.114;2024-01-30T11:06:00;45.6;;;31.1;;
12721;SDS011;6425;50.316;8.114;2024-01-30T11:09:00;47;;;30.1;;
12721;SDS011;6425;50.316;8.114;2024-01-30T11:12:00;47;;;30.1;;
12721;SDS011;6425;50.316;8.114;2024-01-30T11:15:01;32.9;;;22.5;;
12721;SDS011;6425;50.316;8.114;2024-01-30T11:18:00;32.9;;;22.5;;
12721;SDS011;6425;50.316;8.114;2024-01-30T11:21:00;34.8;;;22.9;;
12721;SDS011;6425;50.316;8.114;2024-01-30T11:24:00;33.5;;;22.6;;
12721;SDS011;6425;50.316;8.114;2024-01-30T11:27:00;33.5;;;22.6;;
12721;SDS011;6425;50.316;8.114;2024-01-30T11:30:01;34.9;;;24.3;;
12721;SDS011;6425;50.316;8.114;2024-01-30T11:33:00;34.9;;;24.3;;
12721;SDS011;6425;50.316;8.114;2024-01-30T11:36:00;31.8;;;20.3;;
12721;SDS011;6425;50.316;8.114;2024-01-30T11:39:00;28.3;;;18.6;;
12721;SDS011;6425;50.316;8.114;2024-01-30T11:42:00;28.3;;;18.6;;
12721;SDS011;6425;50.316;8.114;2024-01-30T11:45:00;28.1;;;18.5;;
12721;SDS011;6425;50.316;8.114;2024-01-30T11:48:00;28.1;;;18.5;;
12721;SDS011;6425;50.316;8.114;2024-01-30T11:51:00;25.4;;;17.2;;
12721;SDS011;6425;50.316;8.114;2024-01-30T11:54:00;24.8;;;17;;
12721;SDS011;6425;50.316;8.114;2024-01-30T11:57:00;24.8;;;17;;
12721;SDS011;6425;50.316;8.114;2024-01-30T12:00:00;22.2;;;16.4;;
12721;SDS011;6425;50.316;8.114;2024-01-30T12:03:00;22.2;;;16.4;;
12721;SDS011;6425;50.316;8.114;2024-01-30T12:06:00;23.2;;;16.8;;
12721;SDS011;6425;50.316;8.114;2024-01-30T12:09:01;20.4;;;14.7;;
12721;SDS011;6425;50.316;8.114;2024-01-30T12:12:00;20.4;;;14.7;;
12721;SDS011;6425;50.316;8.114;2024-01-30T12:15:00;19.7;;;15.1;;
12721;SDS011;6425;50.316;8.114;2024-01-30T12:18:03;21.5;;;16.1;;
12721;SDS011;6425;50.316;8.114;2024-01-30T12:21:00;22.2;;;16.5;;
12721;SDS011;6425;50.316;8.114;2024-01-30T12:24:00;20.7;;;16.1;;
12721;SDS011;6425;50.316;8.114;2024-01-30T12:27:00;20.7;;;16.1;;
12721;SDS011;6425;50.316;8.114;2024-01-30T12:30:00;20.2;;;14.7;;
12721;SDS011;6425;50.316;8.114;2024-01-30T12:33:00;20;;;16.1;;
12721;SDS011;6425;50.316;8.114;2024-01-30T12:36:01;20;;;16.1;;
12721;SDS011;6425;50.316;8.114;2024-01-30T12:39:00;70.9;;;62.7;;
12721;SDS011;6425;50.316;8.114;2024-01-30T12:42:00;70.9;;;62.7;;
12721;SDS011;6425;50.316;8.114;2024-01-30T12:45:02;27.1;;;21.1;;
12721;SDS011;6425;50.316;8.114;2024-01-30T12:48:00;47.4;;;36.5;;
12721;SDS011;6425;50.316;8.114;2024-01-30T12:51:00;47.4;;;36.5;;
12721;SDS011;6425;50.316;8.114;2024-01-30T12:54:03;35.2;;;26.3;;
12721;SDS011;6425;50.316;8.114;2024-01-30T12:57:00;35.2;;;26.3;;
12721;SDS011;6425;50.316;8.114;2024-01-30T13:00:00;32.5;;;22.3;;
12721;SDS011;6425;50.316;8.114;2024-01-30T13:03:00;31.2;;;22.4;;
12721;SDS011;6425;50.316;8.114;2024-01-30T13:06:00;31.2;;;22.4;;
12721;SDS011;6425;50.316;8.114;2024-01-30T13:09:02;31;;;23.2;;
12721;SDS011;6425;50.316;8.114;2024-01-30T13:12:00;31;;;23.2;;
12721;SDS011;6425;50.316;8.114;2024-01-30T13:15:00;35.1;;;25;;
12721;SDS011;6425;50.316;8.114;2024-01-30T13:18:00;28.3;;;21.6;;
12721;SDS011;6425;50.316;8.114;2024-01-30T13:21:01;28.3;;;21.6;;
12721;SDS011;6425;50.316;8.114;2024-01-30T13:24:00;30.8;;;21;;
12721;SDS011;6425;50.316;8.114;2024-01-30T13:27:00;30.8;;;21;;
12721;SDS011;6425;50.316;8.114;2024-01-30T13:30:00;29.9;;;22.5;;
12721;SDS011;6425;50.316;8.114;2024-01-30T13:33:02;26.1;;;20.9;;
12721;SDS011;6425;50.316;8.114;2024-01-30T13:36:00;26.1;;;20.9;;
12721;SDS011;6425;50.316;8.114;2024-01-30T13:39:00;31.9;;;23.7;;
12721;SDS011;6425;50.316;8.114;2024-01-30T13:42:00;31.9;;;23.7;;
12721;SDS011;6425;50.316;8.114;2024-01-30T13:45:00;26.7;;;20.7;;
12721;SDS011;6425;50.316;8.114;2024-01-30T13:48:00;27.2;;;20.2;;
12721;SDS011;6425;50.316;8.114;2024-01-30T13:51:00;27.2;;;20.2;;
12721;SDS011;6425;50.316;8.114;2024-01-30T13:54:00;28;;;21.3;;
12721;SDS011;6425;50.316;8.114;2024-01-30T13:57:00;28;;;21.3;;
12721;SDS011;6425;50.316;8.114;2024-01-30T14:00:00;27.3;;;21;;
12721;SDS011;6425;50.316;8.114;2024-01-30T14:03:00;25.3;;;21;;
12721;SDS011;6425;50.316;8.114;2024-01-30T14:06:00;25.3;;;21;;
12721;SDS011;6425;50.316;8.114;2024-01-30T14:09:01;29.3;;;21.7;;
12721;SDS011;6425;50.316;8.114;2024-01-30T14:12:00;29.3;;;21.7;;
12721;SDS011;6425;50.316;8.114;2024-01-30T14:15:00;38.1;;;28.8;;
12721;SDS011;6425;50.316;8.114;2024-01-30T14:18:00;41;;;28.5;;
12721;SDS011;6425;50.316;8.114;2024-01-30T14:21:00;41;;;28.5;;
12721;SDS011;6425;50.316;8.114;2024-01-30T14:24:00;29.3;;;22.7;;
12721;SDS011;6425;50.316;8.114;2024-01-30T14:27:00;29.3;;;22.7;;
12721;SDS011;6425;50.316;8.114;2024-01-30T14:30:00;32;;;24.5;;
12721;SDS011;6425;50.316;8.114;2024-01-30T14:33:00;35;;;24.9;;
12721;SDS011;6425;50.316;8.114;2024-01-30T14:36:00;35;;;24.9;;
12721;SDS011;6425;50.316;8.114;2024-01-30T14:39:00;36.8;;;25.9;;
12721;SDS011;6425;50.316;8.114;2024-01-30T14:42:00;36.8;;;25.9;;
12721;SDS011;6425;50.316;8.114;2024-01-30T14:45:00;38.6;;;27;;
12721;SDS011;6425;50.316;8.114;2024-01-30T14:48:00;37.1;;;26.8;;
12721;SDS011;6425;50.316;8.114;2024-01-30T14:51:00;37.1;;;26.8;;
12721;SDS011;6425;50.316;8.114;2024-01-30T14:54:00;38.6;;;28;;
12721;SDS011;6425;50.316;8.114;2024-01-30T14:57:00;38.6;;;28;;
12721;SDS011;6425;50.316;8.114;2024-01-30T15:00:00;37.7;;;26.5;;
12721;SDS011;6425;50.316;8.114;2024-01-30T15:03:00;41.2;;;30;;
12721;SDS011;6425;50.316;8.114;2024-01-30T15:06:00;41.2;;;30;;
12721;SDS011;6425;50.316;8.114;2024-01-30T15:09:01;38.7;;;27.5;;
12721;SDS011;6425;50.316;8.114;2024-01-30T15:12:00;38.7;;;27.5;;
12721;SDS011;6425;50.316;8.114;2024-01-30T15:15:00;35.1;;;26.5;;
12721;SDS011;6425;50.316;8.114;2024-01-30T15:18:00;41.7;;;30;;
12721;SDS011;6425;50.316;8.114;2024-01-30T15:21:02;41.7;;;30;;
12721;SDS011;6425;50.316;8.114;2024-01-30T15:24:00;43.6;;;31.3;;
12721;SDS011;6425;50.316;8.114;2024-01-30T15:27:00;43.6;;;31.3;;
12721;SDS011;6425;50.316;8.114;2024-01-30T15:30:00;46.3;;;31.5;;
12721;SDS011;6425;50.316;8.114;2024-01-30T15:33:00;40.7;;;28.6;;
12721;SDS011;6425;50.316;8.114;2024-01-30T15:36:00;40.7;;;28.6;;
12721;SDS011;6425;50.316;8.114;2024-01-30T15:39:00;46.2;;;31.1;;
12721;SDS011;6425;50.316;8.114;2024-01-30T15:42:00;41.9;;;28.3;;
12721;SDS011;6425;50.316;8.114;2024-01-30T15:45:00;40.5;;;27.4;;
12721;SDS011;6425;50.316;8.114;2024-01-30T15:48:00;32;;;22.3;;
12721;SDS011;6425;50.316;8.114;2024-01-30T15:51:00;32;;;22.3;;
12721;SDS011;6425;50.316;8.114;2024-01-30T15:54:00;28.7;;;19.9;;
12721;SDS011;6425;50.316;8.114;2024-01-30T15:57:00;27.8;;;16.1;;
12721;SDS011;6425;50.316;8.114;2024-01-30T16:00:00;27.8;;;16.1;;
12721;SDS011;6425;50.316;8.114;2024-01-30T16:03:00;25.1;;;17.6;;
12721;SDS011;6425;50.316;8.114;2024-01-30T16:06:00;25.1;;;17.6;;
12721;SDS011;6425;50.316;8.114;2024-01-30T16:09:00;33.5;;;18.4;;
12721;SDS011;6425;50.316;8.114;2024-01-30T16:12:00;28.7;;;16.4;;
12721;SDS011;6425;50.316;8.114;2024-01-30T16:15:00;28.7;;;16.4;;
12721;SDS011;6425;50.316;8.114;2024-01-30T16:18:00;28.8;;;16.9;;
12721;SDS011;6425;50.316;8.114;2024-01-30T16:21:00;28.8;;;16.9;;
12721;SDS011;6425;50.316;8.114;2024-01-30T16:24:00;20.2;;;14.4;;
12721;SDS011;6425;50.316;8.114;2024-01-30T16:27:00;27.4;;;15.5;;
12721;SDS011;6425;50.316;8.114;2024-01-30T16:30:00;27.4;;;15.5;;
12721;SDS011;6425;50.316;8.114;2024-01-30T16:33:00;20.3;;;13.7;;
12721;SDS011;6425;50.316;8.114;2024-01-30T16:36:00;20.3;;;13.7;;
12721;SDS011;6425;50.316;8.114;2024-01-30T16:39:00;23.1;;;14.9;;
12721;SDS011;6425;50.316;8.114;2024-01-30T16:42:00;24.4;;;14.4;;
12721;SDS011;6425;50.316;8.114;2024-01-30T16:45:00;24.4;;;14.4;;
12721;SDS011;6425;50.316;8.114;2024-01-30T16:48:00;19.6;;;12.1;;
12721;SDS011;6425;50.316;8.114;2024-01-30T16:51:00;19.6;;;12.1;;
12721;SDS011;6425;50.316;8.114;2024-01-30T16:54:00;14.3;;;9.3;;
12721;SDS011;6425;50.316;8.114;2024-01-30T16:57:00;11.7;;;7.5;;
12721;SDS011;6425;50.316;8.114;2024-01-30T17:00:00;11.7;;;7.5;;
12721;SDS011;6425;50.316;8.114;2024-01-30T17:03:00;14;;;9.1;;
12721;SDS011;6425;50.316;8.114;2024-01-30T17:06:00;14;;;9.1;;
12721;SDS011;6425;50.316;8.114;2024-01-30T17:09:00;13;;;7;;
12721;SDS011;6425;50.316;8.114;2024-01-30T17:12:00;11.7;;;6.9;;
12721;SDS011;6425;50.316;8.114;2024-01-30T17:15:00;11.7;;;6.9;;
12721;SDS011;6425;50.316;8.114;2024-01-30T17:18:00;12.9;;;7.1;;
12721;SDS011;6425;50.316;8.114;2024-01-30T17:21:00;12.9;;;7.1;;
12721;SDS011;6425;50.316;8.114;2024-01-30T17:24:00;13.1;;;7.3;;
12721;SDS011;6425;50.316;8.114;2024-01-30T17:27:00;13.1;;;8.3;;
12721;SDS011;6425;50.316;8.114;2024-01-30T17:30:00;13.1;;;8.3;;
12721;SDS011;6425;50.316;8.114;2024-01-30T17:33:00;14.1;;;7.9;;
12721;SDS011;6425;50.316;8.114;2024-01-30T17:36:00;14.1;;;7.9;;
12721;SDS011;6425;50.316;8.114;2024-01-30T17:39:00;13.4;;;8.2;;
12721;SDS011;6425;50.316;8.114;2024-01-30T17:42:00;14.3;;;9.6;;
12721;SDS011;6425;50.316;8.114;2024-01-30T17:45:00;14.3;;;9.6;;
12721;SDS011;6425;50.316;8.114;2024-01-30T17:48:00;11.6;;;8.1;;
12721;SDS011;6425;50.316;8.114;2024-01-30T17:51:00;11.6;;;8.1;;
12721;SDS011;6425;50.316;8.114;2024-01-30T17:54:00;13.3;;;8.7;;
12721;SDS011;6425;50.316;8.114;2024-01-30T17:57:00;13.5;;;9.3;;
12721;SDS011;6425;50.316;8.114;2024-01-30T18:00:00;13.5;;;9.3;;
12721;SDS011;6425;50.316;8.114;2024-01-30T18:03:00;16.3;;;9.4;;
12721;SDS011;6425;50.316;8.114;2024-01-30T18:06:00;16.3;;;9.4;;
12721;SDS011;6425;50.316;8.114;2024-01-30T18:09:00;13.9;;;9.1;;
12721;SDS011;6425;50.316;8.114;2024-01-30T18:12:00;14.5;;;8.9;;
12721;SDS011;6425;50.316;8.114;2024-01-30T18:15:00;14.5;;;8.9;;
12721;SDS011;6425;50.316;8.114;2024-01-30T18:18:00;13.4;;;8.9;;
12721;SDS011;6425;50.316;8.114;2024-01-30T18:21:00;13.4;;;8.9;;
12721;SDS011;6425;50.316;8.114;2024-01-30T18:24:00;14.9;;;9.4;;
12721;SDS011;6425;50.316;8.114;2024-01-30T18:27:00;13.8;;;9.3;;
12721;SDS011;6425;50.316;8.114;2024-01-30T18:30:00;13.8;;;9.3;;